createdAt,value
2018-10-09T00:02:05.452Z,66.64
2018-10-09T00:04:33.524Z,66.78
2018-10-09T00:07:01.633Z,67.21
2018-10-09T00:09:29.700Z,67.32
2018-10-09T00:11:57.757Z,67.12
2018-10-09T00:14:25.828Z,67.31
2018-10-09T00:16:53.896Z,66.78
2018-10-09T00:19:21.966Z,66.79
2018-10-09T00:21:50.032Z,67.39
2018-10-09T00:24:18.107Z,67.62
2018-10-09T00:26:46.180Z,66.93
2018-10-09T00:29:14.248Z,67.36
2018-10-09T00:31:42.321Z,66.91
2018-10-09T00:34:10.400Z,67.54
2018-10-09T00:36:38.464Z,67.10
2018-10-09T00:39:07.824Z,67.55
2018-10-09T00:41:35.882Z,67.16
2018-10-09T00:44:03.951Z,67.53
2018-10-09T00:46:32.021Z,67.15
2018-10-09T00:49:00.091Z,67.31
2018-10-09T00:51:28.585Z,67.11
2018-10-09T00:53:56.657Z,67.27
2018-10-09T00:56:24.733Z,67.11
2018-10-09T00:58:52.794Z,67.31
2018-10-09T01:01:20.857Z,67.00
2018-10-09T01:03:48.924Z,67.26
2018-10-09T01:06:16.984Z,67.51
2018-10-09T01:08:45.048Z,67.12
2018-10-09T01:11:13.136Z,67.38
2018-10-09T01:13:41.217Z,66.99
2018-10-09T01:16:09.300Z,67.67
2018-10-09T01:18:37.352Z,67.68
2018-10-09T01:21:05.420Z,67.13
2018-10-09T01:23:33.481Z,67.24
2018-10-09T01:26:01.572Z,67.60
2018-10-09T01:28:29.637Z,67.11
2018-10-09T01:30:57.701Z,67.48
2018-10-09T01:33:25.781Z,67.36
2018-10-09T01:35:53.849Z,67.27
2018-10-09T01:38:21.901Z,67.56
2018-10-09T01:40:49.971Z,67.27
2018-10-09T01:43:18.033Z,67.06
2018-10-09T01:45:46.144Z,67.14
2018-10-09T01:48:14.196Z,67.48
2018-10-09T01:50:42.254Z,67.33
2018-10-09T01:53:10.327Z,67.10
2018-10-09T01:55:38.448Z,66.58
2018-10-09T01:58:06.512Z,67.37
2018-10-09T02:00:34.597Z,67.02
2018-10-09T02:03:02.669Z,66.72
2018-10-09T02:05:30.743Z,66.98
2018-10-09T02:07:58.804Z,66.54
2018-10-09T02:10:26.865Z,66.67
2018-10-09T02:12:54.932Z,66.63
2018-10-09T02:15:22.998Z,66.48
2018-10-09T02:17:51.060Z,66.28
2018-10-09T02:20:19.153Z,66.49
2018-10-09T02:22:47.259Z,66.59
2018-10-09T02:25:15.325Z,66.55
2018-10-09T02:27:43.402Z,67.00
2018-10-09T02:30:11.705Z,66.93
2018-10-09T02:32:39.772Z,67.17
2018-10-09T02:35:07.845Z,66.74
2018-10-09T02:37:35.929Z,66.57
2018-10-09T02:40:04.177Z,67.13
2018-10-09T02:42:32.248Z,67.58
2018-10-09T02:45:00.315Z,67.23
2018-10-09T02:47:28.381Z,67.18
2018-10-09T02:49:56.456Z,66.78
2018-10-09T02:52:24.521Z,67.09
2018-10-09T02:54:52.586Z,67.21
2018-10-09T02:57:20.653Z,67.62
2018-10-09T02:59:48.727Z,67.86
2018-10-09T03:02:16.792Z,67.63
2018-10-09T03:04:44.861Z,67.93
2018-10-09T03:07:12.920Z,68.28
2018-10-09T03:09:40.997Z,67.92
2018-10-09T03:12:09.064Z,68.21
2018-10-09T03:14:37.140Z,68.36
2018-10-09T03:17:05.212Z,68.49
2018-10-09T03:19:33.286Z,67.95
2018-10-09T03:22:01.352Z,68.20
2018-10-09T03:24:29.422Z,68.28
2018-10-09T03:26:57.525Z,68.90
2018-10-09T03:29:25.589Z,68.33
2018-10-09T03:31:53.653Z,68.66
2018-10-09T03:34:21.740Z,69.07
2018-10-09T03:36:49.865Z,68.73
2018-10-09T03:39:17.928Z,69.17
2018-10-09T03:41:46.008Z,68.78
2018-10-09T03:44:14.085Z,69.33
2018-10-09T03:46:42.187Z,68.85
2018-10-09T03:49:10.256Z,69.27
2018-10-09T03:51:38.324Z,69.06
2018-10-09T03:54:06.516Z,69.13
2018-10-09T03:56:34.604Z,69.23
2018-10-09T03:59:02.664Z,69.60
2018-10-09T04:01:30.740Z,69.78
2018-10-09T04:03:58.924Z,69.59
2018-10-09T04:06:27.357Z,68.99
2018-10-09T04:08:55.486Z,69.41
2018-10-09T04:11:23.537Z,69.91
2018-10-09T04:13:51.620Z,69.67
2018-10-09T04:16:19.711Z,69.83
2018-10-09T04:18:47.844Z,69.79
2018-10-09T04:21:15.926Z,69.63
2018-10-09T04:23:43.997Z,70.17
2018-10-09T04:26:12.098Z,70.31
2018-10-09T04:28:40.196Z,70.25
2018-10-09T04:31:08.261Z,69.38
2018-10-09T04:33:36.352Z,69.95
2018-10-09T04:36:04.438Z,69.78
2018-10-09T04:38:32.533Z,69.65
2018-10-09T04:41:00.615Z,69.83
2018-10-09T04:43:28.691Z,69.58
2018-10-09T04:45:56.764Z,69.62
2018-10-09T04:48:24.861Z,70.39
2018-10-09T04:50:53.027Z,70.12
2018-10-09T04:53:21.100Z,69.97
2018-10-09T04:55:49.200Z,69.78
2018-10-09T04:58:17.280Z,70.30
2018-10-09T05:00:45.437Z,70.42
2018-10-09T05:03:13.478Z,70.67
2018-10-09T05:05:41.549Z,70.65
2018-10-09T05:08:09.648Z,70.41
2018-10-09T05:10:37.763Z,70.70
2018-10-09T05:13:05.833Z,70.31
2018-10-09T05:15:33.922Z,70.49
2018-10-09T05:18:02.025Z,70.30
2018-10-09T05:20:30.113Z,70.86
2018-10-09T05:22:58.188Z,70.58
2018-10-09T05:25:26.270Z,70.06
2018-10-09T05:27:54.360Z,70.48
2018-10-09T05:30:22.461Z,70.14
2018-10-09T05:32:50.544Z,70.59
2018-10-09T05:35:18.661Z,70.89
2018-10-09T05:37:46.815Z,70.82
2018-10-09T05:40:14.833Z,70.11
2018-10-09T05:42:42.910Z,70.96
2018-10-09T05:45:10.989Z,70.53
2018-10-09T05:47:39.165Z,70.52
2018-10-09T05:50:08.268Z,70.95
2018-10-09T05:52:36.647Z,70.45
2018-10-09T05:55:04.706Z,70.76
2018-10-09T05:57:32.805Z,70.25
2018-10-09T06:00:00.913Z,70.49
2018-10-09T06:02:28.984Z,70.54
2018-10-09T06:04:57.060Z,69.90
2018-10-09T06:07:25.128Z,69.95
2018-10-09T06:09:53.209Z,69.90
2018-10-09T06:12:21.289Z,69.79
2018-10-09T06:14:49.365Z,69.99
2018-10-09T06:17:17.445Z,69.90
2018-10-09T06:19:45.512Z,70.50
2018-10-09T06:22:13.625Z,70.10
2018-10-09T06:24:41.689Z,70.27
2018-10-09T06:27:09.806Z,69.59
2018-10-09T06:29:37.897Z,69.46
2018-10-09T06:32:05.996Z,69.82
2018-10-09T06:34:34.096Z,69.82
2018-10-09T06:37:02.199Z,69.81
2018-10-09T06:39:30.296Z,69.79
2018-10-09T06:41:58.456Z,69.25
2018-10-09T06:44:26.593Z,69.11
2018-10-09T06:46:54.672Z,69.11
2018-10-09T06:49:22.789Z,69.53
2018-10-09T06:51:50.868Z,69.18
2018-10-09T06:54:18.967Z,69.17
2018-10-09T06:56:47.060Z,68.68
2018-10-09T06:59:15.301Z,68.61
2018-10-09T07:01:43.423Z,68.01
2018-10-09T07:04:11.493Z,67.58
2018-10-09T07:06:39.621Z,67.22
2018-10-09T07:09:09.756Z,67.40
2018-10-09T07:11:37.886Z,66.27
2018-10-09T07:14:05.975Z,66.30
2018-10-09T07:16:34.158Z,66.05
2018-10-09T07:19:02.284Z,64.96
2018-10-09T07:21:30.369Z,64.72
2018-10-09T07:23:58.459Z,64.25
2018-10-09T07:26:26.555Z,64.05
2018-10-09T07:28:54.661Z,64.29
2018-10-09T07:31:22.757Z,63.42
2018-10-09T07:33:50.905Z,63.03
2018-10-09T07:36:19.029Z,63.22
2018-10-09T07:38:47.129Z,62.59
2018-10-09T07:41:15.230Z,62.64
2018-10-09T07:43:43.363Z,62.59
2018-10-09T07:46:11.442Z,61.74
2018-10-09T07:48:39.537Z,61.97
2018-10-09T07:51:07.685Z,61.69
2018-10-09T07:53:35.797Z,60.99
2018-10-09T07:56:03.881Z,60.95
2018-10-09T07:58:32.023Z,60.83
2018-10-09T08:01:00.055Z,61.12
2018-10-09T08:03:28.143Z,60.96
2018-10-09T08:05:56.240Z,60.63
2018-10-09T08:08:24.317Z,59.95
2018-10-09T08:10:52.419Z,60.09
2018-10-09T08:13:20.566Z,59.97
2018-10-09T08:15:48.651Z,59.49
2018-10-09T08:18:16.728Z,59.51
2018-10-09T08:20:44.832Z,59.68
2018-10-09T08:23:12.946Z,59.83
2018-10-09T08:25:41.045Z,59.76
2018-10-09T08:28:09.202Z,59.45
2018-10-09T08:30:37.225Z,59.91
2018-10-09T08:33:05.330Z,59.29
2018-10-09T08:35:33.416Z,59.64
2018-10-09T08:38:01.485Z,59.93
2018-10-09T08:40:29.694Z,59.96
2018-10-09T08:42:57.667Z,59.43
2018-10-09T08:45:25.753Z,59.61
2018-10-09T08:47:53.825Z,59.63
2018-10-09T08:50:21.907Z,59.60
2018-10-09T08:52:49.990Z,60.04
2018-10-09T08:55:18.085Z,59.85
2018-10-09T08:57:46.153Z,60.11
2018-10-09T09:00:14.237Z,59.84
2018-10-09T09:02:42.310Z,60.26
2018-10-09T09:05:10.394Z,60.02
2018-10-09T09:07:38.505Z,59.61
2018-10-09T09:10:06.985Z,59.86
2018-10-09T09:12:35.086Z,59.77
2018-10-09T09:15:03.163Z,59.68
2018-10-09T09:17:31.253Z,59.24
2018-10-09T09:19:59.320Z,59.71
2018-10-09T09:22:27.407Z,59.25
2018-10-09T09:24:55.486Z,59.65
2018-10-09T09:27:23.613Z,59.68
2018-10-09T09:29:51.672Z,59.14
2018-10-09T09:32:19.749Z,59.02
2018-10-09T09:34:47.850Z,58.68
2018-10-09T09:37:16.028Z,58.53
2018-10-09T09:39:44.119Z,58.19
2018-10-09T09:42:12.223Z,58.04
2018-10-09T09:44:40.302Z,57.63
2018-10-09T09:47:08.415Z,58.14
2018-10-09T09:49:36.523Z,57.94
2018-10-09T09:52:04.670Z,56.93
2018-10-09T09:54:32.737Z,57.49
2018-10-09T09:57:00.825Z,57.26
2018-10-09T09:59:28.937Z,56.79
2018-10-09T10:01:57.035Z,56.93
2018-10-09T10:04:25.210Z,56.13
2018-10-09T10:06:53.305Z,55.26
2018-10-09T10:09:21.430Z,55.74
2018-10-09T10:11:49.481Z,55.78
2018-10-09T10:14:17.650Z,55.42
2018-10-09T10:16:45.715Z,55.33
2018-10-09T10:19:13.794Z,55.43
2018-10-09T10:21:41.886Z,54.76
2018-10-09T10:24:09.979Z,54.99
2018-10-09T10:26:38.048Z,54.10
2018-10-09T10:29:06.588Z,53.64
2018-10-09T10:31:34.673Z,53.59
2018-10-09T10:34:02.890Z,52.91
2018-10-09T10:36:31.044Z,53.06
2018-10-09T10:38:59.109Z,53.11
2018-10-09T10:41:27.202Z,53.27
2018-10-09T10:43:55.341Z,52.96
2018-10-09T10:46:23.450Z,51.58
2018-10-09T10:49:01.257Z,51.61
2018-10-09T10:51:29.392Z,51.28
2018-10-09T10:53:57.754Z,51.74
2018-10-09T10:56:25.846Z,50.93
2018-10-09T10:58:53.950Z,50.88
2018-10-09T11:01:22.174Z,50.06
2018-10-09T11:03:50.165Z,49.83
2018-10-09T11:06:18.297Z,50.60
2018-10-09T11:08:46.890Z,49.76
2018-10-09T11:11:15.013Z,50.47
2018-10-09T11:13:43.153Z,50.25
2018-10-09T11:16:11.297Z,49.36
2018-10-09T11:18:39.369Z,48.68
2018-10-09T11:21:07.817Z,47.90
2018-10-09T11:23:35.899Z,47.96
2018-10-09T11:26:03.992Z,46.40
2018-10-09T11:28:32.463Z,46.64
2018-10-09T11:31:00.549Z,45.44
2018-10-09T11:33:28.708Z,45.52
2018-10-09T11:35:56.818Z,44.77
2018-10-09T11:38:24.945Z,44.47
2018-10-09T11:40:53.041Z,44.08
2018-10-09T11:43:21.210Z,43.10
2018-10-09T11:45:49.302Z,43.13
2018-10-09T11:48:17.445Z,42.63
2018-10-09T11:50:45.530Z,42.19
2018-10-09T11:53:13.675Z,41.42
2018-10-09T11:55:41.855Z,40.91
2018-10-09T11:58:09.933Z,41.20
2018-10-09T12:00:39.851Z,41.03
2018-10-09T12:03:08.065Z,40.80
2018-10-09T12:05:36.441Z,40.58
2018-10-09T12:08:04.495Z,40.03
2018-10-09T12:10:32.735Z,38.98
2018-10-09T12:13:01.017Z,38.94
2018-10-09T12:15:29.137Z,38.46
2018-10-09T12:17:57.262Z,38.78
2018-10-09T12:20:25.335Z,38.31
2018-10-09T12:22:53.717Z,37.37
2018-10-09T12:25:22.065Z,37.46
2018-10-09T12:27:50.146Z,37.03
2018-10-09T12:30:18.521Z,37.08
2018-10-09T12:32:46.643Z,36.14
2018-10-09T12:35:14.686Z,36.11
2018-10-09T12:37:42.774Z,35.48
2018-10-09T12:40:10.905Z,35.33
2018-10-09T12:42:38.985Z,34.48
2018-10-09T12:45:07.053Z,33.88
2018-10-09T12:47:35.140Z,33.99
2018-10-09T12:50:03.257Z,33.70
2018-10-09T12:52:31.321Z,32.41
2018-10-09T12:54:59.426Z,32.75
2018-10-09T12:57:27.507Z,32.46
2018-10-09T12:59:55.565Z,31.39
2018-10-09T13:02:23.710Z,31.81
2018-10-09T13:04:51.764Z,31.82
2018-10-09T13:07:19.913Z,32.51
2018-10-09T13:09:48.026Z,31.87
2018-10-09T13:12:16.184Z,31.52
2018-10-09T13:14:44.284Z,32.10
2018-10-09T13:17:12.455Z,32.25
2018-10-09T13:19:40.504Z,31.33
2018-10-09T13:22:09.041Z,31.59
2018-10-09T13:24:36.741Z,30.93
2018-10-09T13:27:04.999Z,31.34
2018-10-09T13:29:33.121Z,30.83
2018-10-09T13:32:01.194Z,31.10
2018-10-09T13:34:29.456Z,31.61
2018-10-09T13:36:57.547Z,31.60
2018-10-09T13:39:25.617Z,31.12
2018-10-09T13:41:53.773Z,31.14
2018-10-09T13:44:21.928Z,32.05
2018-10-09T13:46:50.082Z,31.73
2018-10-09T13:49:18.156Z,31.74
2018-10-09T13:51:46.403Z,32.00
2018-10-09T13:54:14.552Z,31.35
2018-10-09T13:56:42.634Z,31.38
2018-10-09T13:59:10.893Z,31.16
2018-10-09T14:01:38.985Z,30.74
2018-10-09T14:04:07.217Z,31.10
2018-10-09T14:06:35.290Z,30.85
2018-10-09T14:09:04.441Z,31.53
2018-10-09T14:11:32.529Z,31.52
2018-10-09T14:14:00.623Z,31.23
2018-10-09T14:16:28.714Z,31.84
2018-10-09T14:18:56.809Z,31.39
2018-10-09T14:21:24.902Z,32.28
2018-10-09T14:23:53.136Z,32.00
2018-10-09T14:26:21.253Z,33.10
2018-10-09T14:28:49.353Z,32.58
2018-10-09T14:31:17.444Z,32.23
2018-10-09T14:33:45.525Z,32.41
2018-10-09T14:36:13.660Z,32.78
2018-10-09T14:38:41.756Z,32.80
2018-10-09T14:41:09.842Z,32.78
2018-10-09T14:43:37.926Z,32.81
2018-10-09T14:46:06.019Z,32.84
2018-10-09T14:48:34.093Z,32.70
2018-10-09T14:51:02.185Z,33.26
2018-10-09T14:53:30.275Z,33.03
2018-10-09T14:55:58.362Z,33.28
2018-10-09T14:58:26.453Z,33.23
2018-10-09T15:00:54.555Z,33.50
2018-10-09T15:03:22.659Z,33.81
2018-10-09T15:05:50.758Z,34.19
2018-10-09T15:08:18.859Z,33.85
2018-10-09T15:10:46.952Z,34.15
2018-10-09T15:13:15.234Z,34.33
2018-10-09T15:15:43.385Z,34.46
2018-10-09T15:18:11.472Z,34.46
2018-10-09T15:20:39.555Z,34.72
2018-10-09T15:23:07.925Z,34.90
2018-10-09T15:25:36.049Z,35.09
2018-10-09T15:28:04.138Z,35.59
2018-10-09T15:30:32.229Z,35.67
2018-10-09T15:33:00.517Z,35.96
2018-10-09T15:35:28.691Z,36.20
2018-10-09T15:37:56.725Z,36.43
2018-10-09T15:40:24.804Z,36.66
2018-10-09T15:42:52.897Z,37.25
2018-10-09T15:45:20.973Z,37.21
2018-10-09T15:47:49.057Z,37.37
2018-10-09T15:50:17.162Z,37.63
2018-10-09T15:52:45.303Z,38.19
2018-10-09T15:55:13.369Z,38.14
2018-10-09T15:57:41.459Z,38.13
2018-10-09T16:00:09.563Z,38.59
2018-10-09T16:02:37.692Z,38.70
2018-10-09T16:05:05.782Z,39.03
2018-10-09T16:07:33.870Z,39.78
2018-10-09T16:10:01.987Z,39.60
2018-10-09T16:12:30.142Z,40.64
2018-10-09T16:14:58.231Z,41.15
2018-10-09T16:17:28.601Z,41.30
2018-10-09T16:19:56.712Z,41.77
2018-10-09T16:22:24.894Z,42.62
2018-10-09T16:24:52.997Z,43.00
2018-10-09T16:27:21.138Z,43.07
2018-10-09T16:29:49.217Z,43.31
2018-10-09T16:32:17.329Z,44.31
2018-10-09T16:34:45.429Z,44.06
2018-10-09T16:37:13.694Z,45.63
2018-10-09T16:39:41.785Z,45.96
2018-10-09T16:42:09.885Z,45.79
2018-10-09T16:44:38.001Z,46.74
2018-10-09T16:47:06.957Z,46.51
2018-10-09T16:49:36.612Z,47.04
2018-10-09T16:52:04.792Z,47.47
2018-10-09T16:54:33.219Z,47.45
2018-10-09T16:57:01.326Z,47.95
2018-10-09T16:59:29.457Z,48.35
2018-10-09T17:01:57.557Z,49.26
2018-10-09T17:04:25.673Z,49.04
2018-10-09T17:06:53.801Z,48.88
2018-10-09T17:09:21.869Z,49.32
2018-10-09T17:11:49.944Z,49.90
2018-10-09T17:14:18.053Z,50.31
2018-10-09T17:16:46.173Z,51.08
2018-10-09T17:19:14.258Z,51.02
2018-10-09T17:21:42.330Z,50.62
2018-10-09T17:24:10.428Z,51.36
2018-10-09T17:26:39.406Z,51.71
2018-10-09T17:29:07.510Z,52.66
2018-10-09T17:31:35.656Z,52.48
2018-10-09T17:34:03.777Z,52.72
2018-10-09T17:36:31.846Z,52.83
2018-10-09T17:38:59.946Z,53.10
2018-10-09T17:41:28.009Z,53.35
2018-10-09T17:43:56.089Z,53.33
2018-10-09T17:46:24.973Z,53.67
2018-10-09T17:48:52.884Z,54.05
2018-10-09T17:51:20.942Z,54.35
2018-10-09T17:53:49.077Z,54.35
2018-10-09T17:56:17.146Z,54.64
2018-10-09T17:58:45.204Z,55.04
2018-10-09T18:01:13.292Z,55.21
2018-10-09T18:03:41.358Z,54.98
2018-10-09T18:06:09.434Z,55.70
2018-10-09T18:08:37.512Z,55.60
2018-10-09T18:11:05.617Z,56.04
2018-10-09T18:13:33.690Z,56.31
2018-10-09T18:16:01.828Z,56.75
2018-10-09T18:18:29.868Z,57.06
2018-10-09T18:20:57.942Z,57.14
2018-10-09T18:23:26.023Z,57.36
2018-10-09T18:25:54.100Z,57.25
2018-10-09T18:28:22.166Z,57.49
2018-10-09T18:30:50.238Z,57.61
2018-10-09T18:33:18.465Z,57.95
2018-10-09T18:35:46.405Z,57.92
2018-10-09T18:38:14.469Z,57.59
2018-10-09T18:40:42.690Z,58.27
2018-10-09T18:43:10.707Z,58.27
2018-10-09T18:45:38.793Z,58.69
2018-10-09T18:48:06.869Z,58.61
2018-10-09T18:50:34.929Z,59.00
2018-10-09T18:53:02.988Z,59.26
2018-10-09T18:55:31.065Z,59.16
2018-10-09T18:57:59.133Z,59.73
2018-10-09T19:00:27.197Z,59.79
2018-10-09T19:02:55.273Z,59.91
2018-10-09T19:05:23.354Z,59.88
2018-10-09T19:07:51.558Z,60.28
2018-10-09T19:10:19.635Z,60.30
2018-10-09T19:12:47.714Z,60.42
2018-10-09T19:15:15.782Z,60.80
2018-10-09T19:17:43.920Z,61.14
2018-10-09T19:20:12.006Z,60.79
2018-10-09T19:22:40.094Z,61.01
2018-10-09T19:25:08.407Z,60.86
2018-10-09T19:27:36.500Z,61.16
2018-10-09T19:30:04.849Z,61.56
2018-10-09T19:32:32.960Z,61.83
2018-10-09T19:35:01.062Z,62.19
2018-10-09T19:37:29.192Z,61.98
2018-10-09T19:39:57.266Z,62.08
2018-10-09T19:42:25.357Z,62.32
2018-10-09T19:44:53.495Z,62.60
2018-10-09T19:47:21.589Z,62.16
2018-10-09T19:49:49.731Z,62.23
2018-10-09T19:52:17.948Z,62.67
2018-10-09T19:54:46.005Z,62.48
2018-10-09T19:57:14.101Z,63.07
2018-10-09T19:59:42.202Z,62.55
2018-10-09T20:02:10.285Z,63.16
2018-10-09T20:04:38.546Z,62.79
2018-10-09T20:07:06.667Z,63.51
2018-10-09T20:09:34.721Z,63.47
2018-10-09T20:12:02.826Z,63.57
2018-10-09T20:14:30.977Z,63.44
2018-10-09T20:16:59.050Z,63.93
2018-10-09T20:19:27.190Z,63.41
2018-10-09T20:21:55.278Z,63.99
2018-10-09T20:24:23.357Z,63.70
2018-10-09T20:26:51.458Z,64.41
2018-10-09T20:29:19.541Z,63.88
2018-10-09T20:31:47.652Z,64.04
2018-10-09T20:34:15.740Z,64.10
2018-10-09T20:36:43.818Z,64.42
2018-10-09T20:39:11.922Z,64.95
2018-10-09T20:41:40.008Z,64.79
2018-10-09T20:44:08.206Z,65.04
2018-10-09T20:46:36.272Z,65.28
2018-10-09T20:49:04.345Z,64.87
2018-10-09T20:51:32.409Z,65.13
2018-10-09T20:54:00.491Z,65.68
2018-10-09T20:56:28.565Z,65.49
2018-10-09T20:58:56.653Z,65.61
2018-10-09T21:01:24.719Z,65.19
2018-10-09T21:03:52.832Z,65.97
2018-10-09T21:06:20.905Z,65.26
2018-10-09T21:08:49.034Z,65.95
2018-10-09T21:11:17.114Z,65.94
2018-10-09T21:13:45.198Z,66.15
2018-10-09T21:16:13.318Z,65.94
2018-10-09T21:18:41.382Z,66.22
2018-10-09T21:21:09.455Z,66.52
2018-10-09T21:23:37.529Z,66.35
2018-10-09T21:26:05.606Z,66.04
2018-10-09T21:28:33.681Z,66.34
2018-10-09T21:31:01.775Z,66.71
2018-10-09T21:33:29.862Z,66.58
2018-10-09T21:35:57.949Z,66.65
2018-10-09T21:38:26.042Z,66.40
2018-10-09T21:40:54.128Z,66.71
2018-10-09T21:43:22.214Z,66.72
2018-10-09T21:45:50.399Z,66.99
2018-10-09T21:48:18.466Z,66.63
2018-10-09T21:50:46.541Z,67.50
2018-10-09T21:53:14.636Z,67.23
2018-10-09T21:55:42.713Z,66.94
2018-10-09T21:58:10.798Z,67.35
2018-10-09T22:00:44.157Z,67.46
2018-10-09T22:03:12.283Z,67.80
2018-10-09T22:05:40.370Z,67.96
2018-10-09T22:08:08.449Z,67.13
2018-10-09T22:10:36.549Z,68.06
2018-10-09T22:13:04.633Z,67.69
2018-10-09T22:15:32.710Z,67.66
2018-10-09T22:18:00.805Z,67.40
2018-10-09T22:20:28.896Z,67.53
2018-10-09T22:22:57.002Z,67.62
2018-10-09T22:25:25.071Z,67.56
2018-10-09T22:27:53.157Z,67.93
2018-10-09T22:30:21.226Z,67.95
2018-10-09T22:32:49.338Z,67.79
2018-10-09T22:35:17.493Z,68.23
2018-10-09T22:37:45.572Z,67.68
2018-10-09T22:40:13.672Z,68.32
2018-10-09T22:42:41.745Z,67.75
2018-10-09T22:45:09.822Z,68.62
2018-10-09T22:47:37.890Z,68.43
2018-10-09T22:50:06.018Z,68.25
2018-10-09T22:52:34.090Z,68.33
2018-10-09T22:55:02.177Z,68.67
2018-10-09T22:57:30.237Z,68.25
2018-10-09T22:59:58.310Z,68.52
2018-10-09T23:02:26.386Z,68.24
2018-10-09T23:04:54.469Z,68.72
2018-10-09T23:07:22.574Z,68.84
2018-10-09T23:09:50.652Z,68.92
2018-10-09T23:12:18.750Z,69.01
2018-10-09T23:14:46.925Z,69.11
2018-10-09T23:17:15.057Z,68.85
2018-10-09T23:19:43.137Z,68.79
2018-10-09T23:22:11.232Z,69.04
2018-10-09T23:24:39.306Z,69.31
2018-10-09T23:27:07.445Z,69.38
2018-10-09T23:29:35.549Z,69.54
2018-10-09T23:32:03.657Z,69.19
2018-10-09T23:34:31.747Z,68.95
2018-10-09T23:36:59.831Z,69.08
2018-10-09T23:39:27.903Z,68.76
2018-10-09T23:41:56.007Z,69.09
2018-10-09T23:44:24.069Z,69.36
2018-10-09T23:46:52.153Z,69.69
2018-10-09T23:49:20.221Z,69.85
2018-10-09T23:51:48.326Z,69.32
2018-10-09T23:54:16.413Z,69.80
2018-10-09T23:56:44.494Z,68.93
2018-10-09T23:59:12.561Z,69.24
